Observation data for Northwest Lubbock on 01/19/2019      Previous  Date  Next       Current Mesonet Observations  Soil Data  Daily Summary Page  Observations in Plain Language
KLBW 190600Z 34015G25KT 01/00 A3007 RMK A01 T00070003  RH  098%=      5-min Rain = 0
KLBW 190605Z 35016G22KT 01/00 A3007 RMK A01 T00080004  RH  098%=      5-min Rain = 0
KLBW 190610Z 35015G24KT 01/00 A3007 RMK A01 T00090003  RH  097%=      5-min Rain = 0
KLBW 190615Z 34015G20KT 01/00 A3007 RMK A01 T00110001  RH  095%=      5-min Rain = 0
KLBW 190620Z 34014G25KT 01/M00 A3008 RMK A01 T00111001  RH  093%=      5-min Rain = 0
KLBW 190625Z 34015G23KT 01/M00 A3008 RMK A01 T00121002  RH  091%=      5-min Rain = 0
KLBW 190630Z 34014G20KT 01/M00 A3008 RMK A01 T00121003  RH  091%=      5-min Rain = 0
KLBW 190635Z 34013G19KT 01/M00 A3009 RMK A01 T00121003  RH  091%=      5-min Rain = 0
KLBW 190640Z 34015G24KT 01/M00 A3009 RMK A01 T00121004  RH  090%=      5-min Rain = 0
KLBW 190645Z 34013G21KT 01/M01 A3009 RMK A01 T00121005  RH  089%=      5-min Rain = 0
KLBW 190650Z 34013G19KT 01/M01 A3009 RMK A01 T00121005  RH  089%=      5-min Rain = 0
KLBW 190655Z 34013G19KT 01/M00 A3009 RMK A01 T00121004  RH  090%=      5-min Rain = 0
KLBW 190700Z 34010G16KT 01/M00 A3009 RMK A01 T00131003  RH  090%=      5-min Rain = 0
KLBW 190705Z 34012KT 01/M00 A3009 RMK A01 T00141002  RH  090%=      5-min Rain = 0
KLBW 190710Z 34012G18KT 01/M00 A3008 RMK A01 T00141004  RH  089%=      5-min Rain = 0
KLBW 190715Z 33015G23KT 01/M01 A3009 RMK A01 T00141005  RH  088%=      5-min Rain = 0
KLBW 190720Z 33016G27KT 02/M01 A3009 RMK A01 T00151007  RH  087%=      5-min Rain = 0
KLBW 190725Z 34017G25KT 02/M01 A3009 RMK A01 T00161010  RH  084%=      5-min Rain = 0
KLBW 190730Z 34019G27KT 02/M01 A3009 RMK A01 T00171014  RH  081%=      5-min Rain = 0
KLBW 190735Z 34016G23KT 02/M02 A3009 RMK A01 T00151016  RH  081%=      5-min Rain = 0
KLBW 190740Z 34019G30KT 01/M02 A3009 RMK A01 T00141018  RH  080%=      5-min Rain = 0
KLBW 190745Z 34016G24KT 01/M02 A3009 RMK A01 T00121019  RH  080%=      5-min Rain = 0
KLBW 190750Z 34015G23KT 01/M02 A301 RMK A01 T00111019  RH  081%=      5-min Rain = 0
KLBW 190755Z 34015G21KT 01/M02 A301 RMK A01 T00101019  RH  082%=      5-min Rain = 0
KLBW 190800Z 33015G21KT 01/M02 A301 RMK A01 T00091019  RH  082%=      5-min Rain = 0
KLBW 190805Z 33015G22KT 01/M02 A301 RMK A01 T00091020  RH  082%=      5-min Rain = 0
KLBW 190810Z 34016G22KT 01/M02 A301 RMK A01 T00091021  RH  081%=      5-min Rain = 0
KLBW 190815Z 33016G25KT 01/M02 A301 RMK A01 T00081022  RH  081%=      5-min Rain = 0
KLBW 190820Z 34017G25KT 01/M02 A3011 RMK A01 T00081023  RH  081%=      5-min Rain = 0
KLBW 190825Z 34018G24KT 01/M03 A3011 RMK A01 T00081025  RH  079%=      5-min Rain = 0
KLBW 190830Z 34017G27KT 01/M03 A3011 RMK A01 T00071026  RH  079%=      5-min Rain = 0
KLBW 190835Z 34015G23KT 01/M03 A3012 RMK A01 T00061026  RH  080%=      5-min Rain = 0
KLBW 190840Z 33014G20KT 00/M03 A3012 RMK A01 T00041025  RH  081%=      5-min Rain = 0
KLBW 190845Z 33016G26KT 01/M03 A3012 RMK A01 T00051026  RH  081%=      5-min Rain = 0
KLBW 190850Z 33016G23KT 01/M03 A3012 RMK A01 T00051027  RH  080%=      5-min Rain = 0
KLBW 190855Z 33014G20KT 00/M03 A3012 RMK A01 T00041027  RH  080%=      5-min Rain = 0
KLBW 190900Z 33014G21KT 00/M03 A3012 RMK A01 T00041027  RH  080%=      5-min Rain = 0
KLBW 190905Z 33016G22KT 01/M03 A3012 RMK A01 T00051028  RH  079%=      5-min Rain = 0
KLBW 190910Z 33016G22KT 01/M03 A3013 RMK A01 T00051029  RH  079%=      5-min Rain = 0
KLBW 190915Z 33016G24KT 00/M03 A3013 RMK A01 T00041029  RH  079%=      5-min Rain = 0
KLBW 190920Z 33018G25KT 00/M03 A3013 RMK A01 T00041030  RH  078%=      5-min Rain = 0
KLBW 190925Z 33016G24KT 01/M03 A3014 RMK A01 T00051033  RH  076%=      5-min Rain = 0
KLBW 190930Z 34018G29KT 01/M04 A3014 RMK A01 T00051035  RH  075%=      5-min Rain = 0
KLBW 190935Z 34017G29KT 00/M04 A3014 RMK A01 T00041036  RH  075%=      5-min Rain = 0
KLBW 190940Z 34017G25KT 00/M04 A3015 RMK A01 T00031036  RH  075%=      5-min Rain = 0
KLBW 190945Z 34015G21KT 00/M04 A3016 RMK A01 T00021036  RH  076%=      5-min Rain = 0
KLBW 190950Z 34012G17KT 00/M04 A3016 RMK A01 T00011035  RH  077%=      5-min Rain = 0
KLBW 190955Z 33012G18KT M00/M04 A3017 RMK A01 T10011035  RH  078%=      5-min Rain = 0
KLBW 191000Z 33013G20KT M00/M03 A3017 RMK A01 T10011034  RH  079%=      5-min Rain = 0
KLBW 191005Z 33010G15KT M00/M03 A3018 RMK A01 T10021034  RH  080%=      5-min Rain = 0
KLBW 191010Z 32010G15KT M00/M03 A3018 RMK A01 T10031033  RH  080%=      5-min Rain = 0
KLBW 191015Z 32009KT M00/M03 A3018 RMK A01 T10041033  RH  081%=      5-min Rain = 0
KLBW 191020Z 32009KT M01/M03 A3018 RMK A01 T10051032  RH  083%=      5-min Rain = 0
KLBW 191025Z 31010KT M01/M03 A3019 RMK A01 T10061030  RH  084%=      5-min Rain = 0
KLBW 191030Z 32012G18KT M00/M03 A3019 RMK A01 T10041029  RH  084%=      5-min Rain = 0
KLBW 191035Z 32011G19KT M00/M03 A3019 RMK A01 T10021029  RH  083%=      5-min Rain = 0
KLBW 191040Z 33011G19KT M00/M03 A3019 RMK A01 T10031030  RH  083%=      5-min Rain = 0
KLBW 191045Z 33011G16KT M00/M03 A3019 RMK A01 T10011029  RH  082%=      5-min Rain = 0
KLBW 191050Z 33010G15KT M00/M03 A3019 RMK A01 T10011030  RH  082%=      5-min Rain = 0
KLBW 191055Z 32009G14KT M00/M03 A302 RMK A01 T10031030  RH  082%=      5-min Rain = 0
KLBW 191100Z 32010G15KT M00/M03 A302 RMK A01 T10041030  RH  083%=      5-min Rain = 0
KLBW 191105Z 32011KT M00/M03 A302 RMK A01 T10041029  RH  084%=      5-min Rain = 0
KLBW 191110Z 32010KT M00/M03 A302 RMK A01 T10041029  RH  084%=      5-min Rain = 0
KLBW 191115Z 32009KT M01/M03 A302 RMK A01 T10051030  RH  084%=      5-min Rain = 0
KLBW 191120Z 33009KT M00/M03 A302 RMK A01 T10041029  RH  084%=      5-min Rain = 0
KLBW 191125Z 33009G14KT M00/M03 A302 RMK A01 T10031030  RH  083%=      5-min Rain = 0
KLBW 191130Z 33009G14KT M00/M03 A302 RMK A01 T10031030  RH  082%=      5-min Rain = 0
KLBW 191135Z 33009KT M00/M03 A302 RMK A01 T10031030  RH  083%=      5-min Rain = 0
KLBW 191140Z 33009G14KT M00/M03 A302 RMK A01 T10041031  RH  082%=      5-min Rain = 0
KLBW 191145Z 32008KT M01/M03 A3019 RMK A01 T10051031  RH  083%=      5-min Rain = 0
KLBW 191150Z 32009KT M01/M03 A302 RMK A01 T10061031  RH  084%=      5-min Rain = 0
KLBW 191155Z 33008KT M01/M03 A302 RMK A01 T10071031  RH  084%=      5-min Rain = 0
KLBW 191200Z 33007KT M01/M03 A302 RMK A01 T10071031  RH  084%=      5-min Rain = 0
KLBW 191205Z 33006KT M01/M03 A302 RMK A01 T10081031  RH  085%=      5-min Rain = 0
KLBW 191210Z 33006KT M01/M03 A3021 RMK A01 T10081032  RH  085%=      5-min Rain = 0
KLBW 191215Z 33006KT M01/M03 A3021 RMK A01 T10101032  RH  085%=      5-min Rain = 0
KLBW 191220Z 32005KT M01/M03 A3021 RMK A01 T10111033  RH  086%=      5-min Rain = 0
KLBW 191225Z 32005KT M01/M03 A3021 RMK A01 T10131034  RH  086%=      5-min Rain = 0
KLBW 191230Z 32005KT M02/M04 A3021 RMK A01 T10151035  RH  087%=      5-min Rain = 0
KLBW 191235Z 32004KT M02/M04 A3022 RMK A01 T10171035  RH  088%=      5-min Rain = 0
KLBW 191240Z 32005KT M02/M04 A3022 RMK A01 T10191037  RH  088%=      5-min Rain = 0
KLBW 191245Z 32005KT M02/M04 A3022 RMK A01 T10201036  RH  089%=      5-min Rain = 0
KLBW 191250Z 32006KT M02/M04 A3022 RMK A01 T10201036  RH  089%=      5-min Rain = 0
KLBW 191255Z 31005KT M02/M04 A3022 RMK A01 T10211036  RH  090%=      5-min Rain = 0
KLBW 191300Z 32006KT M02/M04 A3022 RMK A01 T10201035  RH  090%=      5-min Rain = 0
KLBW 191305Z 31006KT M02/M04 A3022 RMK A01 T10211036  RH  090%=      5-min Rain = 0
KLBW 191310Z 30008KT M02/M03 A3023 RMK A01 T10181033  RH  090%=      5-min Rain = 0
KLBW 191315Z 30007KT M02/M03 A3023 RMK A01 T10171033  RH  090%=      5-min Rain = 0
KLBW 191320Z 30007KT M02/M03 A3024 RMK A01 T10161032  RH  089%=      5-min Rain = 0
KLBW 191325Z 30007KT M01/M03 A3024 RMK A01 T10141032  RH  089%=      5-min Rain = 0
KLBW 191330Z 31007KT M01/M03 A3024 RMK A01 T10121031  RH  087%=      5-min Rain = 0
KLBW 191335Z 31007KT M01/M03 A3024 RMK A01 T10111032  RH  086%=      5-min Rain = 0
KLBW 191340Z 31007KT M01/M03 A3024 RMK A01 T10111034  RH  085%=      5-min Rain = 0
KLBW 191345Z 32007KT M01/M04 A3025 RMK A01 T10141036  RH  086%=      5-min Rain = 0
KLBW 191350Z 31006KT M02/M04 A3025 RMK A01 T10171038  RH  086%=      5-min Rain = 0
KLBW 191355Z 31006KT M02/M04 A3025 RMK A01 T10181038  RH  087%=      5-min Rain = 0
KLBW 191400Z 31006KT M02/M04 A3025 RMK A01 T10171037  RH  087%=      5-min Rain = 0
KLBW 191405Z 31007KT M02/M04 A3025 RMK A01 T10151036  RH  086%=      5-min Rain = 0
KLBW 191410Z 30006KT M01/M04 A3026 RMK A01 T10121035  RH  085%=      5-min Rain = 0
KLBW 191415Z 31008KT M01/M03 A3026 RMK A01 T10101033  RH  085%=      5-min Rain = 0
KLBW 191420Z 31008KT M01/M03 A3026 RMK A01 T10071033  RH  083%=      5-min Rain = 0
KLBW 191425Z 31008KT M01/M03 A3026 RMK A01 T10061032  RH  083%=      5-min Rain = 0
KLBW 191430Z 31008KT M00/M03 A3027 RMK A01 T10031031  RH  082%=      5-min Rain = 0
KLBW 191435Z 31008KT M00/M03 A3027 RMK A01 T10011030  RH  081%=      5-min Rain = 0
KLBW 191440Z 31009KT 00/M03 A3028 RMK A01 T00011030  RH  080%=      5-min Rain = 0
KLBW 191445Z 31008KT 00/M03 A3028 RMK A01 T00041028  RH  080%=      5-min Rain = 0
KLBW 191450Z 31009G14KT 01/M03 A3028 RMK A01 T00071027  RH  078%=      5-min Rain = 0
KLBW 191455Z 31009KT 01/M03 A3028 RMK A01 T00111026  RH  077%=      5-min Rain = 0
KLBW 191500Z 31009KT 01/M03 A3029 RMK A01 T00131026  RH  076%=      5-min Rain = 0
KLBW 191505Z 32010KT 02/M03 A3029 RMK A01 T00151025  RH  075%=      5-min Rain = 0
KLBW 191510Z 32010KT 02/M03 A3029 RMK A01 T00171025  RH  074%=      5-min Rain = 0
KLBW 191515Z 32010G15KT 02/M03 A3029 RMK A01 T00191025  RH  073%=      5-min Rain = 0
KLBW 191520Z 32008KT 02/M02 A303 RMK A01 T00231023  RH  073%=      5-min Rain = 0
KLBW 191525Z 32009G14KT 03/M02 A303 RMK A01 T00251022  RH  072%=      5-min Rain = 0
KLBW 191530Z 32008KT 03/M02 A303 RMK A01 T00281019  RH  072%=      5-min Rain = 0
KLBW 191535Z 32011G16KT 03/M02 A3031 RMK A01 T00321020  RH  069%=      5-min Rain = 0
KLBW 191540Z 33011KT 03/M02 A3031 RMK A01 T00341021  RH  068%=      5-min Rain = 0
KLBW 191545Z 33011KT 04/M02 A3031 RMK A01 T00371020  RH  067%=      5-min Rain = 0
KLBW 191550Z 33012G18KT 04/M02 A3031 RMK A01 T00411021  RH  065%=      5-min Rain = 0
KLBW 191555Z 33014KT 04/M02 A3031 RMK A01 T00421021  RH  064%=      5-min Rain = 0
KLBW 191600Z 33011G16KT 05/M02 A3031 RMK A01 T00451019  RH  063%=      5-min Rain = 0
KLBW 191605Z 34012G17KT 05/M02 A3031 RMK A01 T00461022  RH  062%=      5-min Rain = 0
KLBW 191610Z 34012G18KT 05/M02 A3031 RMK A01 T00491021  RH  061%=      5-min Rain = 0
KLBW 191615Z 34013G19KT 05/M02 A3031 RMK A01 T00531021  RH  059%=      5-min Rain = 0
KLBW 191620Z 34013G20KT 06/M03 A3031 RMK A01 T00561025  RH  056%=      5-min Rain = 0
KLBW 191625Z 34015KT 06/M03 A3031 RMK A01 T00561028  RH  055%=      5-min Rain = 0
KLBW 191630Z 34015G22KT 06/M03 A3031 RMK A01 T00571028  RH  055%=      5-min Rain = 0
KLBW 191635Z 34015G22KT 06/M03 A3032 RMK A01 T00581029  RH  054%=      5-min Rain = 0
KLBW 191640Z 34016G24KT 06/M03 A3032 RMK A01 T00581031  RH  053%=      5-min Rain = 0
KLBW 191645Z 34014G21KT 06/M03 A3032 RMK A01 T00601029  RH  053%=      5-min Rain = 0
KLBW 191650Z 35013G19KT 06/M03 A3032 RMK A01 T00621029  RH  052%=      5-min Rain = 0
KLBW 191655Z 35012G18KT 06/M03 A3032 RMK A01 T00641027  RH  052%=      5-min Rain = 0
KLBW 191700Z 34014G20KT 06/M03 A3032 RMK A01 T00631029  RH  052%=      5-min Rain = 0
KLBW 191705Z 34013G21KT 07/M03 A3032 RMK A01 T00651029  RH  051%=      5-min Rain = 0
KLBW 191710Z 34013KT 07/M03 A3032 RMK A01 T00661028  RH  051%=      5-min Rain = 0
KLBW 191715Z 34014G20KT 07/M03 A3032 RMK A01 T00681029  RH  050%=      5-min Rain = 0
KLBW 191720Z 34015G22KT 07/M03 A3032 RMK A01 T00681031  RH  049%=      5-min Rain = 0
KLBW 191725Z 35013G20KT 07/M03 A3032 RMK A01 T00691030  RH  050%=      5-min Rain = 0
KLBW 191730Z 36013G18KT 07/M03 A3032 RMK A01 T00731028  RH  049%=      5-min Rain = 0
KLBW 191735Z 35013G19KT 08/M03 A3032 RMK A01 T00751028  RH  049%=      5-min Rain = 0
KLBW 191740Z 35013G22KT 08/M03 A3032 RMK A01 T00751027  RH  049%=      5-min Rain = 0
KLBW 191745Z 35013G21KT 08/M03 A3032 RMK A01 T00751028  RH  048%=      5-min Rain = 0
KLBW 191750Z 35013G21KT 08/M03 A3032 RMK A01 T00761027  RH  048%=      5-min Rain = 0
KLBW 191755Z 36014G20KT 08/M03 A3032 RMK A01 T00781025  RH  048%=      5-min Rain = 0
KLBW 191800Z 35015G23KT 08/M03 A3032 RMK A01 T00801028  RH  047%=      5-min Rain = 0
KLBW 191805Z 36016G22KT 08/M03 A3032 RMK A01 T00791030  RH  046%=      5-min Rain = 0
KLBW 191810Z 35016G23KT 08/M03 A3032 RMK A01 T00801030  RH  046%=      5-min Rain = 0
KLBW 191815Z 36016G21KT 08/M03 A3032 RMK A01 T00831029  RH  045%=      5-min Rain = 0
KLBW 191820Z 36015G23KT 08/M03 A3031 RMK A01 T00841029  RH  045%=      5-min Rain = 0
KLBW 191825Z 35015G21KT 09/M03 A3031 RMK A01 T00881029  RH  044%=      5-min Rain = 0
KLBW 191830Z 00016G22KT 09/M03 A303 RMK A01 T00871030  RH  044%=      5-min Rain = 0
KLBW 191835Z 36013G20KT 09/M03 A3031 RMK A01 T00911029  RH  043%=      5-min Rain = 0
KLBW 191840Z 36016KT 09/M03 A3031 RMK A01 T00881031  RH  043%=      5-min Rain = 0
KLBW 191845Z 35014G20KT 09/M03 A3031 RMK A01 T00921028  RH  043%=      5-min Rain = 0
KLBW 191850Z 35014G20KT 09/M03 A3031 RMK A01 T00931029  RH  042%=      5-min Rain = 0
KLBW 191855Z 34013G19KT 09/M03 A3031 RMK A01 T00941029  RH  042%=      5-min Rain = 0
KLBW 191900Z 35013G18KT 10/M03 A303 RMK A01 T00981029  RH  041%=      5-min Rain = 0
KLBW 191905Z 35011G19KT 10/M03 A303 RMK A01 T01001028  RH  041%=      5-min Rain = 0
KLBW 191910Z 35014G21KT 10/M03 A303 RMK A01 T00981031  RH  040%=      5-min Rain = 0
KLBW 191915Z 00013G20KT 10/M03 A303 RMK A01 T01001031  RH  040%=      5-min Rain = 0
KLBW 191920Z 35014G19KT 10/M03 A303 RMK A01 T01021032  RH  039%=      5-min Rain = 0
KLBW 191925Z 35012G19KT 10/M03 A3029 RMK A01 T01021032  RH  039%=      5-min Rain = 0
KLBW 191930Z 00014G20KT 10/M03 A3029 RMK A01 T01041032  RH  039%=      5-min Rain = 0
KLBW 191935Z 35013G20KT 11/M03 A3029 RMK A01 T01061034  RH  038%=      5-min Rain = 0
KLBW 191940Z 35015G21KT 10/M04 A3029 RMK A01 T01031038  RH  037%=      5-min Rain = 0
KLBW 191945Z 36014G19KT 11/M04 A3029 RMK A01 T01051035  RH  037%=      5-min Rain = 0
KLBW 191950Z 35013G24KT 11/M04 A3028 RMK A01 T01081035  RH  037%=      5-min Rain = 0
KLBW 191955Z 34012G18KT 11/M04 A3028 RMK A01 T01071037  RH  036%=      5-min Rain = 0
KLBW 192000Z 35013G20KT 11/M04 A3028 RMK A01 T01091038  RH  036%=      5-min Rain = 0
KLBW 192005Z 34014G19KT 11/M04 A3028 RMK A01 T01071038  RH  036%=      5-min Rain = 0
KLBW 192010Z 34013G19KT 11/M04 A3028 RMK A01 T01071038  RH  036%=      5-min Rain = 0
KLBW 192015Z 33012G17KT 11/M04 A3028 RMK A01 T01111036  RH  036%=      5-min Rain = 0
KLBW 192020Z 34012G18KT 11/M04 A3027 RMK A01 T01101036  RH  036%=      5-min Rain = 0
KLBW 192025Z 34011G17KT 11/M04 A3027 RMK A01 T01131035  RH  036%=      5-min Rain = 0
KLBW 192030Z 33013G19KT 11/M04 A3027 RMK A01 T01121038  RH  035%=      5-min Rain = 0
KLBW 192035Z 33011G16KT 11/M04 A3027 RMK A01 T01111038  RH  035%=      5-min Rain = 0
KLBW 192040Z 34011G19KT 11/M04 A3027 RMK A01 T01111040  RH  035%=      5-min Rain = 0
KLBW 192045Z 33010G15KT 12/M04 A3027 RMK A01 T01161039  RH  034%=      5-min Rain = 0
KLBW 192050Z 34011KT 11/M04 A3026 RMK A01 T01121040  RH  034%=      5-min Rain = 0
KLBW 192055Z 33012G17KT 11/M04 A3026 RMK A01 T01121040  RH  034%=      5-min Rain = 0
KLBW 192100Z 35011G17KT 11/M04 A3026 RMK A01 T01131040  RH  034%=      5-min Rain = 0
KLBW 192105Z 34011G17KT 11/M04 A3026 RMK A01 T01111042  RH  034%=      5-min Rain = 0
KLBW 192110Z 34009G17KT 11/M04 A3026 RMK A01 T01131040  RH  034%=      5-min Rain = 0
KLBW 192115Z 34009KT 12/M04 A3026 RMK A01 T01171038  RH  034%=      5-min Rain = 0
KLBW 192120Z 33011KT 11/M04 A3026 RMK A01 T01141039  RH  034%=      5-min Rain = 0
KLBW 192125Z 34009G14KT 11/M04 A3026 RMK A01 T01141038  RH  034%=      5-min Rain = 0
KLBW 192130Z 33009G15KT 12/M04 A3026 RMK A01 T01191037  RH  034%=      5-min Rain = 0
KLBW 192135Z 33009G14KT 12/M04 A3026 RMK A01 T01161037  RH  034%=      5-min Rain = 0
KLBW 192140Z 34011KT 11/M04 A3026 RMK A01 T01141038  RH  034%=      5-min Rain = 0
KLBW 192145Z 35010KT 11/M04 A3026 RMK A01 T01141038  RH  035%=      5-min Rain = 0
KLBW 192150Z 34009G14KT 12/M04 A3026 RMK A01 T01161037  RH  034%=      5-min Rain = 0
KLBW 192155Z 35011G16KT 12/M04 A3026 RMK A01 T01151037  RH  035%=      5-min Rain = 0
KLBW 192200Z 32010KT 12/M04 A3026 RMK A01 T01161038  RH  034%=      5-min Rain = 0
KLBW 192205Z 36009G14KT 12/M04 A3026 RMK A01 T01161036  RH  035%=      5-min Rain = 0
KLBW 192210Z 34007G13KT 11/M04 A3026 RMK A01 T01131036  RH  035%=      5-min Rain = 0
KLBW 192215Z 34010G16KT 11/M04 A3026 RMK A01 T01131037  RH  035%=      5-min Rain = 0
KLBW 192220Z 34009G14KT 11/M04 A3026 RMK A01 T01121037  RH  035%=      5-min Rain = 0
KLBW 192225Z 33008KT 11/M04 A3026 RMK A01 T01131037  RH  035%=      5-min Rain = 0
KLBW 192230Z 34008KT 11/M04 A3026 RMK A01 T01121036  RH  035%=      5-min Rain = 0
KLBW 192235Z 35008KT 11/M04 A3026 RMK A01 T01141036  RH  035%=      5-min Rain = 0
KLBW 192240Z 31008KT 12/M04 A3026 RMK A01 T01161036  RH  034%=      5-min Rain = 0
KLBW 192245Z 34008G13KT 12/M04 A3026 RMK A01 T01151035  RH  035%=      5-min Rain = 0
KLBW 192250Z 35008KT 11/M04 A3026 RMK A01 T01111035  RH  036%=      5-min Rain = 0
KLBW 192255Z 35009KT 11/M04 A3026 RMK A01 T01091035  RH  036%=      5-min Rain = 0
KLBW 192300Z 35006KT 11/M03 A3026 RMK A01 T01091034  RH  037%=      5-min Rain = 0
KLBW 192305Z 00008KT 11/M03 A3026 RMK A01 T01101034  RH  036%=      5-min Rain = 0
KLBW 192310Z 00007KT 11/M03 A3025 RMK A01 T01081034  RH  037%=      5-min Rain = 0
KLBW 192315Z 34007KT 11/M03 A3025 RMK A01 T01081034  RH  037%=      5-min Rain = 0
KLBW 192320Z 35008KT 11/M04 A3025 RMK A01 T01061035  RH  037%=      5-min Rain = 0
KLBW 192325Z 35007KT 10/M04 A3025 RMK A01 T01041035  RH  038%=      5-min Rain = 0
KLBW 192330Z 36006KT 10/M04 A3026 RMK A01 T01031035  RH  038%=      5-min Rain = 0
KLBW 192335Z 01006KT 10/M04 A3026 RMK A01 T01021035  RH  038%=      5-min Rain = 0
KLBW 192340Z 00006KT 10/M04 A3026 RMK A01 T01001035  RH  039%=      5-min Rain = 0
KLBW 192345Z 00005KT 10/M04 A3026 RMK A01 T00991035  RH  039%=      5-min Rain = 0
KLBW 192350Z 01005KT 10/M04 A3026 RMK A01 T00971035  RH  040%=      5-min Rain = 0
KLBW 192355Z 01005KT 09/M04 A3026 RMK A01 T00941035  RH  040%=      5-min Rain = 0
KLBW 200000Z 02004KT 09/M04 A3026 RMK A01 T00911036  RH  041%=      5-min Rain = 0
KLBW 200005Z 02003KT 09/M04 A3026 RMK A01 T00881036  RH  042%=      5-min Rain = 0
KLBW 200010Z 03004KT 08/M04 A3026 RMK A01 T00841036  RH  043%=      5-min Rain = 0
KLBW 200015Z 03005KT 08/M04 A3026 RMK A01 T00821035  RH  044%=      5-min Rain = 0
KLBW 200020Z 03005KT 08/M04 A3026 RMK A01 T00811035  RH  044%=      5-min Rain = 0
KLBW 200025Z 04004KT 08/M04 A3026 RMK A01 T00791035  RH  044%=      5-min Rain = 0
KLBW 200030Z 05003KT 08/M04 A3026 RMK A01 T00781035  RH  045%=      5-min Rain = 0
KLBW 200035Z 04004KT 08/M04 A3026 RMK A01 T00751036  RH  045%=      5-min Rain = 0
KLBW 200040Z 04004KT 07/M04 A3026 RMK A01 T00721035  RH  047%=      5-min Rain = 0
KLBW 200045Z 06003KT 07/M03 A3026 RMK A01 T00691034  RH  048%=      5-min Rain = 0
KLBW 200050Z 08004KT 07/M04 A3027 RMK A01 T00651035  RH  049%=      5-min Rain = 0
KLBW 200055Z 07004KT 06/M04 A3027 RMK A01 T00611036  RH  050%=      5-min Rain = 0
KLBW 200100Z 07004KT 06/M03 A3027 RMK A01 T00591034  RH  051%=      5-min Rain = 0
KLBW 200105Z 05004KT 06/M04 A3027 RMK A01 T00571036  RH  052%=      5-min Rain = 0
KLBW 200110Z 05005KT 06/M04 A3027 RMK A01 T00591035  RH  051%=      5-min Rain = 0
KLBW 200115Z 06004KT 06/M04 A3027 RMK A01 T00601036  RH  051%=      5-min Rain = 0
KLBW 200120Z 09003KT 06/M04 A3027 RMK A01 T00571036  RH  051%=      5-min Rain = 0
KLBW 200125Z 10003KT 05/M04 A3027 RMK A01 T00521036  RH  053%=      5-min Rain = 0
KLBW 200130Z 08004KT 05/M04 A3027 RMK A01 T00491036  RH  055%=      5-min Rain = 0
KLBW 200135Z 07004KT 04/M04 A3026 RMK A01 T00431036  RH  056%=      5-min Rain = 0
KLBW 200140Z 07004KT 04/M03 A3026 RMK A01 T00441034  RH  057%=      5-min Rain = 0
KLBW 200145Z 09004KT 05/M03 A3026 RMK A01 T00461034  RH  056%=      5-min Rain = 0
KLBW 200150Z 10005KT 04/M04 A3026 RMK A01 T00441035  RH  057%=      5-min Rain = 0
KLBW 200155Z 08005KT 04/M04 A3025 RMK A01 T00431036  RH  057%=      5-min Rain = 0
KLBW 200200Z 09005KT 04/M04 A3025 RMK A01 T00421037  RH  057%=      5-min Rain = 0
KLBW 200205Z 08005KT 04/M04 A3025 RMK A01 T00431039  RH  055%=      5-min Rain = 0
KLBW 200210Z 08005KT 05/M04 A3026 RMK A01 T00451040  RH  054%=      5-min Rain = 0
KLBW 200215Z 11003KT 04/M04 A3026 RMK A01 T00441040  RH  055%=      5-min Rain = 0
KLBW 200220Z 09003KT 04/M04 A3026 RMK A01 T00431041  RH  055%=      5-min Rain = 0
KLBW 200225Z 08004KT 04/M04 A3027 RMK A01 T00401040  RH  056%=      5-min Rain = 0
KLBW 200230Z 08003KT 04/M04 A3028 RMK A01 T00391039  RH  057%=      5-min Rain = 0
KLBW 200235Z 10004KT 04/M04 A3028 RMK A01 T00381041  RH  056%=      5-min Rain = 0
KLBW 200240Z 11003KT 03/M04 A3028 RMK A01 T00341043  RH  057%=      5-min Rain = 0
KLBW 200245Z 11002KT 03/M04 A3028 RMK A01 T00311044  RH  058%=      5-min Rain = 0
KLBW 200250Z 10002KT 02/M05 A3029 RMK A01 T00241049  RH  059%=      5-min Rain = 0
KLBW 200255Z 10003KT 02/M05 A3029 RMK A01 T00221046  RH  061%=      5-min Rain = 0
KLBW 200300Z 10003KT 03/M05 A3029 RMK A01 T00251045  RH  060%=      5-min Rain = 0
KLBW 200305Z 09004KT 03/M04 A3028 RMK A01 T00281043  RH  060%=      5-min Rain = 0
KLBW 200310Z 10004KT 03/M04 A3027 RMK A01 T00291041  RH  060%=      5-min Rain = 0
KLBW 200315Z 09004KT 03/M04 A3027 RMK A01 T00301042  RH  060%=      5-min Rain = 0
KLBW 200320Z 08003KT 03/M04 A3027 RMK A01 T00281044  RH  059%=      5-min Rain = 0
KLBW 200325Z 09002KT 02/M05 A3029 RMK A01 T00231048  RH  059%=      5-min Rain = 0
KLBW 200330Z 11003KT 02/M05 A3028 RMK A01 T00181047  RH  062%=      5-min Rain = 0
KLBW 200335Z 11004KT 01/M05 A3027 RMK A01 T00121048  RH  064%=      5-min Rain = 0
KLBW 200340Z 12004KT 02/M05 A3027 RMK A01 T00181046  RH  062%=      5-min Rain = 0
KLBW 200345Z 11004KT 02/M05 A3027 RMK A01 T00241045  RH  061%=      5-min Rain = 0
KLBW 200350Z 11003KT 02/M05 A3027 RMK A01 T00191049  RH  061%=      5-min Rain = 0
KLBW 200355Z 11003KT 02/M04 A3027 RMK A01 T00161044  RH  064%=      5-min Rain = 0
KLBW 200400Z 12003KT 02/M04 A3027 RMK A01 T00171042  RH  065%=      5-min Rain = 0
KLBW 200405Z 12003KT 02/M04 A3027 RMK A01 T00171043  RH  065%=      5-min Rain = 0
KLBW 200410Z 13004KT 02/M04 A3027 RMK A01 T00171044  RH  064%=      5-min Rain = 0
KLBW 200415Z 12004KT 02/M05 A3027 RMK A01 T00221046  RH  061%=      5-min Rain = 0
KLBW 200420Z 12003KT 02/M05 A3027 RMK A01 T00221046  RH  061%=      5-min Rain = 0
KLBW 200425Z 11003KT 02/M05 A3027 RMK A01 T00211045  RH  062%=      5-min Rain = 0
KLBW 200430Z 12003KT 02/M05 A3027 RMK A01 T00241045  RH  061%=      5-min Rain = 0
KLBW 200435Z 13003KT 02/M05 A3027 RMK A01 T00231046  RH  061%=      5-min Rain = 0
KLBW 200440Z 12003KT 02/M05 A3027 RMK A01 T00211047  RH  061%=      5-min Rain = 0
KLBW 200445Z 13003KT 02/M05 A3027 RMK A01 T00201047  RH  061%=      5-min Rain = 0
KLBW 200450Z 12003KT 02/M05 A3028 RMK A01 T00181048  RH  062%=      5-min Rain = 0
KLBW 200455Z 13003KT 01/M05 A3028 RMK A01 T00141050  RH  063%=      5-min Rain = 0
KLBW 200500Z 13004KT 02/M05 A3028 RMK A01 T00171048  RH  062%=      5-min Rain = 0
KLBW 200505Z 14004KT 02/M05 A3028 RMK A01 T00211047  RH  061%=      5-min Rain = 0
KLBW 200510Z 14004KT 02/M05 A3028 RMK A01 T00221046  RH  061%=      5-min Rain = 0
KLBW 200515Z 13005KT 02/M05 A3028 RMK A01 T00231046  RH  061%=      5-min Rain = 0
KLBW 200520Z 13005KT 02/M05 A3028 RMK A01 T00241046  RH  060%=      5-min Rain = 0
KLBW 200525Z 14007KT 03/M05 A3028 RMK A01 T00251045  RH  060%=      5-min Rain = 0
KLBW 200530Z 13007KT 03/M05 A3028 RMK A01 T00281046  RH  058%=      5-min Rain = 0
KLBW 200535Z 14007KT 03/M05 A3029 RMK A01 T00311047  RH  057%=      5-min Rain = 0
KLBW 200540Z 14007KT 03/M05 A3029 RMK A01 T00281047  RH  058%=      5-min Rain = 0
KLBW 200545Z 14007KT 03/M05 A3028 RMK A01 T00281047  RH  058%=      5-min Rain = 0
KLBW 200550Z 14008KT 03/M05 A3028 RMK A01 T00271047  RH  058%=      5-min Rain = 0
KLBW 200555Z 14007KT 03/M05 A3028 RMK A01 T00271047  RH  058%=      5-min Rain = 0

Page generated in 0.0091 seconds.